createdAt,value
2023-03-29T00:00:46.955Z,-1.06
2023-03-29T00:03:37.419Z,-1.18
2023-03-29T00:06:33.267Z,-1.10
2023-03-29T00:09:21.164Z,-1.39
2023-03-29T00:12:08.098Z,-1.59
2023-03-29T00:14:56.747Z,-1.98
2023-03-29T00:17:43.461Z,-1.61
2023-03-29T00:20:30.179Z,-1.63
2023-03-29T00:23:18.587Z,-1.53
2023-03-29T00:26:08.613Z,-1.32
2023-03-29T00:28:55.633Z,-1.29
2023-03-29T00:31:42.754Z,-1.38
2023-03-29T00:34:31.817Z,-1.35
2023-03-29T00:37:22.883Z,-1.41
2023-03-29T00:40:15.796Z,-1.56
2023-03-29T00:43:06.419Z,-1.81
2023-03-29T00:45:53.411Z,-1.69
2023-03-29T00:48:40.500Z,-1.65
2023-03-29T00:51:28.658Z,-1.66
2023-03-29T00:54:21.204Z,-1.96
2023-03-29T00:57:10.847Z,-1.99
2023-03-29T00:59:58.605Z,-1.96
2023-03-29T01:02:51.198Z,-2.06
2023-03-29T01:05:42.227Z,-1.71
2023-03-29T01:08:37.620Z,-1.85
2023-03-29T01:11:28.509Z,-2.07
2023-03-29T01:14:22.985Z,-2.13
2023-03-29T01:17:13.114Z,-2.18
2023-03-29T01:20:09.787Z,-2.00
2023-03-29T01:23:33.863Z,-1.87
2023-03-29T01:26:30.519Z,-1.70
2023-03-29T01:29:43.407Z,-2.02
2023-03-29T01:32:37.864Z,-1.96
2023-03-29T01:35:32.834Z,-2.10
2023-03-29T01:38:23.583Z,-2.25
2023-03-29T01:41:12.261Z,-2.50
2023-03-29T01:44:06.757Z,-2.50
2023-03-29T01:46:57.071Z,-2.42
2023-03-29T01:49:52.365Z,-2.37
2023-03-29T01:52:52.358Z,-2.40
2023-03-29T01:55:41.263Z,-2.47
2023-03-29T01:58:33.971Z,-2.30
2023-03-29T02:01:26.227Z,-2.27
2023-03-29T02:04:18.018Z,-2.12
2023-03-29T02:07:07.535Z,-2.00
2023-03-29T02:09:54.323Z,-2.27
2023-03-29T02:12:41.371Z,-2.56
2023-03-29T02:15:28.306Z,-2.43
2023-03-29T02:18:17.942Z,-2.27
2023-03-29T02:21:07.507Z,-2.10
2023-03-29T02:23:56.288Z,-2.33
2023-03-29T02:26:42.870Z,-2.29
2023-03-29T02:29:29.743Z,-2.58
2023-03-29T02:32:49.171Z,-2.35
2023-03-29T02:35:46.242Z,-1.97
2023-03-29T02:38:33.341Z,-1.55
2023-03-29T02:41:21.229Z,-1.31
2023-03-29T02:44:19.293Z,-1.11
2023-03-29T02:47:16.384Z,-1.07
2023-03-29T02:50:02.893Z,-1.23
2023-03-29T02:52:56.447Z,-1.62
2023-03-29T02:55:43.192Z,-1.63
2023-03-29T02:58:29.801Z,-1.62
2023-03-29T03:01:16.989Z,-1.71
2023-03-29T03:04:06.372Z,-1.30
2023-03-29T03:06:55.343Z,-1.68
2023-03-29T03:09:42.847Z,-1.95
2023-03-29T03:12:29.429Z,-2.09
2023-03-29T03:15:16.428Z,-2.05
2023-03-29T03:18:04.450Z,-1.69
2023-03-29T03:20:57.250Z,-1.43
2023-03-29T03:23:46.167Z,-1.06
2023-03-29T03:26:34.324Z,-0.91
2023-03-29T03:29:25.327Z,-1.35
2023-03-29T03:32:30.680Z,-1.29
2023-03-29T03:36:02.975Z,-1.36
2023-03-29T03:38:50.840Z,-1.50
2023-03-29T03:41:40.537Z,-1.54
2023-03-29T03:44:30.497Z,-1.82
2023-03-29T03:47:41.215Z,-1.74
2023-03-29T03:50:59.309Z,-1.34
2023-03-29T03:53:51.893Z,-1.18
2023-03-29T03:56:53.789Z,-1.13
2023-03-29T03:59:49.163Z,-1.21
2023-03-29T04:02:43.772Z,-1.24
2023-03-29T04:05:30.214Z,-1.47
2023-03-29T04:08:17.469Z,-1.42
2023-03-29T04:11:28.170Z,-1.26
2023-03-29T04:14:15.478Z,-1.01
2023-03-29T04:17:22.809Z,-1.06
2023-03-29T04:20:15.113Z,-1.23
2023-03-29T04:23:01.895Z,-1.30
2023-03-29T04:25:53.972Z,-1.19
2023-03-29T04:29:16.293Z,-1.53
2023-03-29T04:32:14.299Z,-1.63
2023-03-29T04:35:21.274Z,-1.47
2023-03-29T04:38:13.854Z,-1.44
2023-03-29T04:41:05.171Z,-1.30
2023-03-29T04:44:18.214Z,-1.09
2023-03-29T04:47:13.293Z,-1.23
2023-03-29T04:50:03.422Z,-1.20
2023-03-29T04:53:00.456Z,-0.90
2023-03-29T04:55:52.412Z,-0.84
2023-03-29T04:58:52.330Z,-0.42
2023-03-29T05:01:40.897Z,-0.26
2023-03-29T05:04:29.384Z,-0.34
2023-03-29T05:07:24.861Z,-0.32
2023-03-29T05:10:18.018Z,-0.13
2023-03-29T05:13:08.372Z,-0.05
2023-03-29T05:15:55.111Z,0.01
2023-03-29T05:18:42.094Z,-0.04
2023-03-29T05:21:29.721Z,-0.04
2023-03-29T05:24:22.612Z,0.14
2023-03-29T05:27:17.392Z,0.04
2023-03-29T05:30:16.569Z,0.06
2023-03-29T05:33:16.141Z,0.26
2023-03-29T05:36:11.288Z,0.53
2023-03-29T05:39:06.209Z,0.64
2023-03-29T05:41:55.033Z,0.68
2023-03-29T05:44:54.614Z,0.76
2023-03-29T05:47:41.873Z,0.79
2023-03-29T05:50:28.521Z,0.93
2023-03-29T05:53:17.769Z,0.93
2023-03-29T05:56:04.390Z,1.15
2023-03-29T05:58:57.137Z,1.21
2023-03-29T06:01:47.148Z,1.13
2023-03-29T06:04:40.242Z,1.48
2023-03-29T06:07:44.532Z,1.67
2023-03-29T06:10:36.795Z,1.94
2023-03-29T06:13:42.321Z,2.12
2023-03-29T06:16:29.727Z,2.26
2023-03-29T06:19:17.474Z,2.28
2023-03-29T06:22:05.616Z,2.35
2023-03-29T06:24:54.835Z,2.64
2023-03-29T06:27:52.181Z,2.77
2023-03-29T06:30:39.798Z,3.08
2023-03-29T06:33:27.827Z,3.37
2023-03-29T06:36:34.585Z,3.62
2023-03-29T06:39:21.541Z,3.88
2023-03-29T06:42:22.686Z,3.96
2023-03-29T06:45:38.858Z,4.00
2023-03-29T06:48:31.842Z,4.46
2023-03-29T06:51:21.117Z,4.89
2023-03-29T06:54:09.395Z,5.02
2023-03-29T06:57:05.575Z,5.09
2023-03-29T06:59:54.062Z,4.96
2023-03-29T07:02:54.300Z,5.29
2023-03-29T07:05:41.921Z,5.50
2023-03-29T07:08:35.290Z,5.59
2023-03-29T07:11:26.579Z,5.64
2023-03-29T07:14:31.051Z,5.57
2023-03-29T07:17:18.775Z,5.76
2023-03-29T07:20:14.688Z,5.90
2023-03-29T07:23:09.739Z,6.09
2023-03-29T07:25:56.648Z,5.94
2023-03-29T07:28:43.404Z,5.96
2023-03-29T07:31:30.923Z,6.08
2023-03-29T07:34:37.144Z,6.15
2023-03-29T07:37:26.426Z,6.31
2023-03-29T07:40:19.114Z,6.40
2023-03-29T07:43:38.015Z,6.53
2023-03-29T07:46:30.010Z,6.60
2023-03-29T07:49:17.175Z,6.70
2023-03-29T07:52:04.026Z,6.78
2023-03-29T07:54:54.289Z,6.96
2023-03-29T07:57:52.323Z,7.04
2023-03-29T08:00:39.470Z,7.07
2023-03-29T08:03:48.919Z,7.13
2023-03-29T08:06:36.819Z,7.18
2023-03-29T08:09:29.746Z,7.28
2023-03-29T08:12:17.094Z,7.14
2023-03-29T08:15:13.518Z,7.44
2023-03-29T08:18:03.326Z,7.47
2023-03-29T08:20:53.125Z,7.50
2023-03-29T08:23:43.081Z,7.60
2023-03-29T08:26:45.202Z,7.58
2023-03-29T08:29:34.847Z,7.70
2023-03-29T08:32:22.599Z,7.70
2023-03-29T08:35:09.893Z,7.82
2023-03-29T08:38:09.510Z,7.84
2023-03-29T08:40:57.020Z,7.72
2023-03-29T08:43:45.507Z,7.99
2023-03-29T08:46:58.490Z,8.11
2023-03-29T08:49:56.701Z,8.08
2023-03-29T08:52:57.536Z,8.19
2023-03-29T08:56:25.187Z,8.41
2023-03-29T08:59:37.620Z,8.46
2023-03-29T09:02:36.465Z,8.63
2023-03-29T09:05:39.183Z,8.65
2023-03-29T09:08:32.548Z,8.74
2023-03-29T09:11:24.100Z,8.84
2023-03-29T09:14:29.687Z,8.89
2023-03-29T09:17:56.324Z,8.96
2023-03-29T09:20:52.812Z,9.02
2023-03-29T09:23:59.387Z,8.93
2023-03-29T09:26:55.368Z,8.80
2023-03-29T09:30:13.162Z,8.69
2023-03-29T09:33:44.490Z,8.56
2023-03-29T09:37:02.904Z,8.48
2023-03-29T09:39:49.896Z,8.43
2023-03-29T09:42:40.726Z,8.37
2023-03-29T09:45:27.220Z,8.34
2023-03-29T09:48:15.843Z,8.49
2023-03-29T09:51:08.977Z,8.43
2023-03-29T09:53:58.237Z,8.42
2023-03-29T09:57:03.589Z,8.24
2023-03-29T09:59:51.539Z,8.34
2023-03-29T10:02:38.403Z,8.39
2023-03-29T10:05:26.375Z,8.46
2023-03-29T10:08:44.829Z,8.59
2023-03-29T10:11:37.519Z,8.66
2023-03-29T10:14:38.625Z,8.70
2023-03-29T10:17:28.496Z,8.82
2023-03-29T10:20:36.540Z,8.85
2023-03-29T10:23:23.296Z,8.83
2023-03-29T10:26:21.692Z,8.80
2023-03-29T10:29:09.632Z,8.72
2023-03-29T10:31:56.746Z,8.73
2023-03-29T10:34:48.175Z,8.71
2023-03-29T10:37:35.414Z,8.66
2023-03-29T10:40:40.903Z,8.70
2023-03-29T10:43:34.939Z,8.65
2023-03-29T10:46:27.495Z,8.68
2023-03-29T10:49:20.574Z,8.55
2023-03-29T10:52:13.787Z,8.60
2023-03-29T10:55:03.469Z,8.58
2023-03-29T10:58:41.414Z,8.72
2023-03-29T11:01:47.391Z,8.76
2023-03-29T11:05:13.779Z,8.82
2023-03-29T11:08:17.671Z,8.95
2023-03-29T11:11:37.467Z,8.99
2023-03-29T11:15:05.655Z,9.04
2023-03-29T11:18:33.389Z,9.06
2023-03-29T11:21:37.815Z,9.16
2023-03-29T11:35:42.444Z,9.35
2023-03-29T11:38:37.889Z,9.30
2023-03-29T11:41:30.800Z,9.32
2023-03-29T11:44:23.485Z,9.37
2023-03-29T11:47:23.527Z,9.33
2023-03-29T11:50:20.683Z,9.33
2023-03-29T11:53:17.680Z,9.32
2023-03-29T11:56:13.305Z,9.35
2023-03-29T11:59:09.021Z,9.38
2023-03-29T12:02:20.551Z,9.33
2023-03-29T12:05:24.694Z,9.32
2023-03-29T12:08:21.353Z,9.32
2023-03-29T12:11:30.849Z,9.35
2023-03-29T12:14:27.366Z,9.39
2023-03-29T12:17:24.660Z,9.40
2023-03-29T12:20:20.138Z,9.37
2023-03-29T12:23:16.652Z,9.36
2023-03-29T12:26:12.917Z,9.45
2023-03-29T12:29:28.633Z,9.56
2023-03-29T12:32:38.921Z,9.61
2023-03-29T12:36:08.945Z,9.60
2023-03-29T12:39:19.062Z,9.64
2023-03-29T12:43:05.292Z,9.68
2023-03-29T12:46:21.518Z,9.81
2023-03-29T12:49:23.100Z,9.83
2023-03-29T12:52:32.945Z,9.81
2023-03-29T12:55:45.509Z,9.77
2023-03-29T12:58:39.986Z,9.84
2023-03-29T13:01:29.002Z,9.88
2023-03-29T13:04:21.941Z,9.88
2023-03-29T13:07:24.214Z,9.76
2023-03-29T13:10:33.249Z,9.66
2023-03-29T13:13:26.142Z,9.81
2023-03-29T13:45:26.746Z,9.15
2023-03-29T13:48:30.965Z,9.17
2023-03-29T13:51:19.364Z,9.08
2023-03-29T13:54:19.874Z,8.87
2023-03-29T13:57:41.267Z,8.77
2023-03-29T14:00:33.850Z,9.35
2023-03-29T14:03:33.298Z,9.19
2023-03-29T14:06:42.649Z,9.03
2023-03-29T14:09:35.041Z,9.38
2023-03-29T14:12:29.401Z,8.82
2023-03-29T14:15:45.231Z,9.10
2023-03-29T14:18:36.655Z,8.65
2023-03-29T14:21:23.147Z,9.09
2023-03-29T14:24:13.002Z,8.74
2023-03-29T14:27:02.769Z,9.10
2023-03-29T14:29:51.773Z,9.07
2023-03-29T14:32:39.855Z,8.85
2023-03-29T14:35:32.490Z,8.93
2023-03-29T14:38:18.683Z,9.23
2023-03-29T14:41:05.568Z,8.89
2023-03-29T14:43:52.359Z,8.95
2023-03-29T14:46:39.595Z,8.55
2023-03-29T14:49:27.289Z,8.57
2023-03-29T14:52:15.655Z,8.88
2023-03-29T14:55:02.740Z,9.26
2023-03-29T14:57:51.380Z,9.29
2023-03-29T15:00:43.095Z,8.73
2023-03-29T15:03:33.444Z,8.60
2023-03-29T15:06:20.934Z,8.59
2023-03-29T15:09:15.403Z,8.82
2023-03-29T15:12:06.217Z,9.03
2023-03-29T15:14:54.833Z,8.60
2023-03-29T15:17:51.923Z,8.88
2023-03-29T15:20:40.600Z,9.02
2023-03-29T15:23:27.163Z,8.48
2023-03-29T15:26:20.326Z,9.36
2023-03-29T15:29:23.670Z,9.01
2023-03-29T15:32:23.065Z,9.21
2023-03-29T15:35:25.859Z,8.98
2023-03-29T15:38:14.323Z,9.52
2023-03-29T15:41:04.218Z,9.28
2023-03-29T15:43:50.654Z,9.08
2023-03-29T15:46:37.249Z,8.79
2023-03-29T15:50:06.205Z,8.96
2023-03-29T15:53:43.190Z,9.36
2023-03-29T15:56:37.567Z,8.90
2023-03-29T15:59:25.733Z,8.85
2023-03-29T16:02:16.666Z,8.79
2023-03-29T16:05:04.831Z,8.64
2023-03-29T16:07:51.353Z,9.10
2023-03-29T16:10:37.927Z,9.03
2023-03-29T16:13:24.831Z,8.46
2023-03-29T16:16:13.529Z,8.86
2023-03-29T16:19:00.147Z,8.02
2023-03-29T16:21:46.082Z,8.78
2023-03-29T16:24:34.158Z,8.30
2023-03-29T16:27:20.630Z,8.72
2023-03-29T16:30:08.496Z,8.13
2023-03-29T16:32:55.133Z,7.86
2023-03-29T16:35:42.257Z,8.15
2023-03-29T16:38:29.483Z,8.29
2023-03-29T16:41:16.983Z,8.54
2023-03-29T16:44:04.105Z,7.86
2023-03-29T16:46:50.734Z,8.45
2023-03-29T16:49:39.238Z,8.43
2023-03-29T16:52:27.852Z,8.13
2023-03-29T16:55:15.359Z,8.13
2023-03-29T16:58:01.829Z,7.83
2023-03-29T17:00:48.630Z,8.25
2023-03-29T17:03:37.496Z,8.22
2023-03-29T17:06:24.269Z,7.95
2023-03-29T17:09:10.775Z,8.18
2023-03-29T17:11:57.084Z,7.93
2023-03-29T17:14:43.678Z,7.91
2023-03-29T17:17:29.907Z,7.67
2023-03-29T17:20:16.924Z,7.65
2023-03-29T17:23:03.219Z,7.41
2023-03-29T17:25:50.186Z,7.29
2023-03-29T17:28:39.020Z,7.76
2023-03-29T17:31:26.300Z,7.78
2023-03-29T17:34:12.475Z,7.66
2023-03-29T17:37:00.172Z,7.95
2023-03-29T17:39:46.324Z,7.95
2023-03-29T17:42:32.813Z,7.26
2023-03-29T17:45:19.615Z,7.52
2023-03-29T17:48:06.666Z,7.72
2023-03-29T17:50:57.010Z,7.81
2023-03-29T17:53:44.293Z,7.70
2023-03-29T17:56:30.798Z,7.55
2023-03-29T17:59:17.752Z,7.33
2023-03-29T18:02:06.139Z,7.20
2023-03-29T18:04:52.689Z,7.79
2023-03-29T18:07:38.668Z,7.49
2023-03-29T18:10:25.165Z,7.43
2023-03-29T18:13:14.164Z,7.70
2023-03-29T18:16:05.441Z,7.23
2023-03-29T18:18:52.301Z,7.40
2023-03-29T18:21:38.587Z,7.86
2023-03-29T18:24:33.197Z,7.37
2023-03-29T18:27:20.035Z,7.80
2023-03-29T18:30:07.767Z,7.13
2023-03-29T18:32:54.181Z,7.78
2023-03-29T18:35:40.644Z,7.78
2023-03-29T18:38:27.241Z,7.57
2023-03-29T18:41:14.367Z,7.31
2023-03-29T18:44:01.119Z,7.73
2023-03-29T18:46:48.220Z,7.57
2023-03-29T18:49:34.726Z,6.95
2023-03-29T18:52:24.996Z,7.65
2023-03-29T18:55:11.532Z,7.58
2023-03-29T18:57:58.030Z,7.08
2023-03-29T19:00:44.713Z,6.83
2023-03-29T19:03:32.195Z,7.20
2023-03-29T19:06:19.378Z,7.48
2023-03-29T19:09:05.515Z,7.14
2023-03-29T19:11:51.764Z,7.13
2023-03-29T19:14:37.581Z,7.37
2023-03-29T19:17:24.258Z,7.02
2023-03-29T19:20:11.719Z,7.04
2023-03-29T19:22:58.245Z,6.63
2023-03-29T19:26:00.949Z,6.68
2023-03-29T19:28:47.604Z,7.29
2023-03-29T19:31:36.076Z,7.28
2023-03-29T19:34:24.049Z,7.08
2023-03-29T19:37:10.052Z,7.29
2023-03-29T19:39:57.244Z,7.05
2023-03-29T19:42:43.588Z,6.98
2023-03-29T19:45:30.124Z,7.08
2023-03-29T19:48:22.367Z,6.77
2023-03-29T19:51:10.708Z,6.95
2023-03-29T19:53:57.424Z,6.68
2023-03-29T19:56:44.421Z,7.11
2023-03-29T19:59:31.649Z,6.79
2023-03-29T20:02:17.856Z,6.89
2023-03-29T20:05:04.528Z,6.78
2023-03-29T20:07:51.601Z,6.15
2023-03-29T20:10:37.554Z,6.70
2023-03-29T20:13:57.254Z,6.12
2023-03-29T20:17:11.876Z,6.35
2023-03-29T20:20:13.382Z,6.51
2023-03-29T20:23:05.411Z,6.54
2023-03-29T20:25:52.737Z,6.24
2023-03-29T20:28:39.266Z,6.09
2023-03-29T20:31:26.096Z,6.49
2023-03-29T20:34:12.406Z,6.73
2023-03-29T20:37:01.142Z,5.83
2023-03-29T20:39:47.842Z,6.74
2023-03-29T20:42:36.830Z,5.99
2023-03-29T20:45:23.102Z,6.71
2023-03-29T20:48:11.960Z,6.44
2023-03-29T20:50:58.609Z,6.30
2023-03-29T20:54:02.508Z,6.70
2023-03-29T20:56:48.878Z,6.48
2023-03-29T20:59:35.836Z,6.30
2023-03-29T21:02:23.074Z,6.48
2023-03-29T21:05:09.970Z,6.70
2023-03-29T21:07:57.269Z,6.75
2023-03-29T21:10:45.096Z,6.81
2023-03-29T21:13:36.508Z,6.56
2023-03-29T21:16:25.393Z,6.89
2023-03-29T21:19:12.682Z,6.33
2023-03-29T21:21:59.167Z,6.74
2023-03-29T21:24:45.228Z,6.69
2023-03-29T21:27:37.339Z,6.62
2023-03-29T21:30:23.687Z,6.26
2023-03-29T21:33:10.650Z,6.65
2023-03-29T21:35:57.055Z,6.98
2023-03-29T21:38:43.548Z,6.82
2023-03-29T21:41:29.573Z,6.80
2023-03-29T21:44:15.939Z,6.54
2023-03-29T21:47:05.747Z,6.64
2023-03-29T21:49:52.524Z,6.69
2023-03-29T21:52:38.662Z,7.00
2023-03-29T21:55:25.289Z,6.72
2023-03-29T21:58:12.591Z,7.02
2023-03-29T22:00:58.840Z,6.82
2023-03-29T22:03:46.631Z,6.51
2023-03-29T22:06:33.346Z,6.55
2023-03-29T22:09:20.569Z,6.42
2023-03-29T22:12:07.361Z,6.79
2023-03-29T22:14:53.616Z,6.90
2023-03-29T22:17:41.471Z,6.92
2023-03-29T22:20:27.925Z,6.96
2023-03-29T22:23:15.407Z,6.98
2023-03-29T22:26:07.178Z,6.49
2023-03-29T22:28:53.950Z,6.75
2023-03-29T22:31:40.701Z,6.22
2023-03-29T22:34:27.765Z,6.27
2023-03-29T22:37:14.063Z,6.74
2023-03-29T22:40:00.282Z,6.53
2023-03-29T22:42:46.795Z,6.72
2023-03-29T22:45:32.876Z,6.91
2023-03-29T22:48:19.256Z,7.02
2023-03-29T22:51:06.304Z,7.02
2023-03-29T22:53:52.152Z,6.62
2023-03-29T22:56:38.768Z,6.93
2023-03-29T22:59:25.574Z,6.76
2023-03-29T23:02:11.765Z,6.93
2023-03-29T23:04:57.868Z,6.85
2023-03-29T23:07:44.458Z,6.60
2023-03-29T23:10:30.914Z,6.70
2023-03-29T23:13:23.595Z,6.36
2023-03-29T23:16:09.839Z,6.54
2023-03-29T23:18:56.645Z,6.78
2023-03-29T23:21:42.368Z,6.81
2023-03-29T23:24:30.426Z,6.72
2023-03-29T23:27:16.306Z,6.69
2023-03-29T23:30:02.554Z,6.77
2023-03-29T23:32:49.524Z,6.80
2023-03-29T23:35:37.321Z,6.71
2023-03-29T23:38:23.348Z,6.69
2023-03-29T23:41:10.939Z,6.69
2023-03-29T23:43:57.778Z,6.63
2023-03-29T23:46:44.114Z,6.65
2023-03-29T23:49:30.238Z,6.68
2023-03-29T23:52:16.283Z,6.54
2023-03-29T23:55:02.528Z,6.48
2023-03-29T23:57:48.443Z,6.38
